sensor_id;sensor_type;location;lat;lon;timestamp;P1;durP1;ratioP1;P2;durP2;ratioP2
29218;SDS011;16421;50.202;7.852;2022-08-14T09:24:34;1.23;;;0.80;;
29218;SDS011;16421;50.202;7.852;2022-08-14T09:29:41;0.85;;;0.82;;
29218;SDS011;16421;50.202;7.852;2022-08-14T09:34:55;0.75;;;0.75;;
29218;SDS011;16421;50.202;7.852;2022-08-14T09:40:13;1.30;;;0.80;;
29218;SDS011;16421;50.202;7.852;2022-08-14T09:45:44;0.90;;;0.75;;
29218;SDS011;16421;50.202;7.852;2022-08-14T09:50:51;0.95;;;0.85;;
29218;SDS011;16421;50.202;7.852;2022-08-14T09:55:59;0.77;;;0.77;;
29218;SDS011;16421;50.202;7.852;2022-08-14T10:01:08;0.90;;;0.90;;
29218;SDS011;16421;50.202;7.852;2022-08-14T10:06:19;1.17;;;1.08;;
29218;SDS011;16421;50.202;7.852;2022-08-14T10:11:29;1.40;;;1.30;;
29218;SDS011;16421;50.202;7.852;2022-08-14T10:16:40;1.05;;;1.02;;
29218;SDS011;16421;50.202;7.852;2022-08-14T10:21:56;1.50;;;1.40;;
29218;SDS011;16421;50.202;7.852;2022-08-14T10:27:02;1.63;;;1.52;;
29218;SDS011;16421;50.202;7.852;2022-08-14T10:32:08;1.10;;;1.00;;
29218;SDS011;16421;50.202;7.852;2022-08-14T10:37:13;0.90;;;0.90;;
29218;SDS011;16421;50.202;7.852;2022-08-14T10:42:18;1.35;;;1.05;;
29218;SDS011;16421;50.202;7.852;2022-08-14T10:47:32;2.00;;;0.70;;
29218;SDS011;16421;50.202;7.852;2022-08-14T10:52:42;0.80;;;0.60;;
29218;SDS011;16421;50.202;7.852;2022-08-14T10:57:48;0.80;;;0.80;;
29218;SDS011;16421;50.202;7.852;2022-08-14T11:02:57;1.00;;;0.80;;
29218;SDS011;16421;50.202;7.852;2022-08-14T11:08:31;0.60;;;0.60;;
29218;SDS011;16421;50.202;7.852;2022-08-14T11:13:47;0.80;;;0.80;;
29218;SDS011;16421;50.202;7.852;2022-08-14T11:19:03;0.60;;;0.60;;
29218;SDS011;16421;50.202;7.852;2022-08-14T11:24:15;0.50;;;0.50;;
29218;SDS011;16421;50.202;7.852;2022-08-14T11:29:23;0.60;;;0.60;;
29218;SDS011;16421;50.202;7.852;2022-08-14T11:34:30;0.63;;;0.40;;
29218;SDS011;16421;50.202;7.852;2022-08-14T11:39:42;0.73;;;0.70;;
29218;SDS011;16421;50.202;7.852;2022-08-14T11:44:49;0.55;;;0.55;;
29218;SDS011;16421;50.202;7.852;2022-08-14T11:49:59;0.60;;;0.60;;
29218;SDS011;16421;50.202;7.852;2022-08-14T11:55:14;0.32;;;0.32;;
29218;SDS011;16421;50.202;7.852;2022-08-14T12:00:26;0.80;;;0.40;;
29218;SDS011;16421;50.202;7.852;2022-08-14T12:05:33;0.38;;;0.38;;
29218;SDS011;16421;50.202;7.852;2022-08-14T12:10:41;0.60;;;0.60;;
29218;SDS011;16421;50.202;7.852;2022-08-14T12:15:55;0.57;;;0.57;;
29218;SDS011;16421;50.202;7.852;2022-08-14T12:26:16;0.30;;;0.30;;
29218;SDS011;16421;50.202;7.852;2022-08-14T12:31:21;0.70;;;0.40;;
29218;SDS011;16421;50.202;7.852;2022-08-14T12:36:25;0.47;;;0.47;;
29218;SDS011;16421;50.202;7.852;2022-08-14T12:41:32;0.43;;;0.43;;
29218;SDS011;16421;50.202;7.852;2022-08-14T12:46:37;0.82;;;0.40;;
29218;SDS011;16421;50.202;7.852;2022-08-14T12:51:42;0.60;;;0.60;;
29218;SDS011;16421;50.202;7.852;2022-08-14T12:57:03;0.93;;;0.82;;
29218;SDS011;16421;50.202;7.852;2022-08-14T13:02:19;0.88;;;0.88;;
29218;SDS011;16421;50.202;7.852;2022-08-14T13:07:25;0.70;;;0.70;;
29218;SDS011;16421;50.202;7.852;2022-08-14T13:12:31;0.63;;;0.63;;
29218;SDS011;16421;50.202;7.852;2022-08-14T13:17:42;1.02;;;0.68;;
29218;SDS011;16421;50.202;7.852;2022-08-14T13:22:47;0.85;;;0.85;;
29218;SDS011;16421;50.202;7.852;2022-08-14T13:27:53;1.45;;;0.77;;
29218;SDS011;16421;50.202;7.852;2022-08-14T13:33:02;0.82;;;0.70;;
29218;SDS011;16421;50.202;7.852;2022-08-14T13:38:07;0.60;;;0.60;;
29218;SDS011;16421;50.202;7.852;2022-08-14T13:48:18;1.08;;;0.95;;
29218;SDS011;16421;50.202;7.852;2022-08-14T13:53:22;0.95;;;0.88;;
29218;SDS011;16421;50.202;7.852;2022-08-14T13:58:31;0.93;;;0.90;;
29218;SDS011;16421;50.202;7.852;2022-08-14T14:03:37;0.50;;;0.50;;
29218;SDS011;16421;50.202;7.852;2022-08-14T14:08:45;0.63;;;0.63;;
29218;SDS011;16421;50.202;7.852;2022-08-14T14:13:53;0.63;;;0.63;;
29218;SDS011;16421;50.202;7.852;2022-08-14T14:18:58;0.68;;;0.60;;
29218;SDS011;16421;50.202;7.852;2022-08-14T14:24:08;0.85;;;0.50;;
29218;SDS011;16421;50.202;7.852;2022-08-14T14:29:14;0.95;;;0.70;;
29218;SDS011;16421;50.202;7.852;2022-08-14T14:34:20;0.50;;;0.50;;
29218;SDS011;16421;50.202;7.852;2022-08-14T14:39:26;1.40;;;1.27;;
29218;SDS011;16421;50.202;7.852;2022-08-14T14:49:41;1.02;;;0.95;;
29218;SDS011;16421;50.202;7.852;2022-08-14T14:54:45;0.60;;;0.57;;
29218;SDS011;16421;50.202;7.852;2022-08-14T14:59:52;0.60;;;0.60;;
29218;SDS011;16421;50.202;7.852;2022-08-14T15:05:03;0.80;;;0.80;;
29218;SDS011;16421;50.202;7.852;2022-08-14T15:10:09;0.40;;;0.40;;
29218;SDS011;16421;50.202;7.852;2022-08-14T15:15:15;0.60;;;0.60;;
29218;SDS011;16421;50.202;7.852;2022-08-14T15:20:20;0.90;;;0.80;;
29218;SDS011;16421;50.202;7.852;2022-08-14T15:25:24;0.95;;;0.88;;
29218;SDS011;16421;50.202;7.852;2022-08-14T15:30:33;0.80;;;0.60;;
29218;SDS011;16421;50.202;7.852;2022-08-14T15:35:37;0.57;;;0.50;;
29218;SDS011;16421;50.202;7.852;2022-08-14T15:40:41;0.55;;;0.55;;
29218;SDS011;16421;50.202;7.852;2022-08-14T15:45:46;0.38;;;0.38;;
29218;SDS011;16421;50.202;7.852;2022-08-14T15:50:49;0.82;;;0.65;;
29218;SDS011;16421;50.202;7.852;2022-08-14T15:55:54;0.30;;;0.30;;
29218;SDS011;16421;50.202;7.852;2022-08-14T16:00:59;0.77;;;0.65;;
29218;SDS011;16421;50.202;7.852;2022-08-14T16:06:37;0.70;;;0.70;;
29218;SDS011;16421;50.202;7.852;2022-08-14T16:11:44;0.82;;;0.73;;
29218;SDS011;16421;50.202;7.852;2022-08-14T16:16:52;0.60;;;0.60;;
29218;SDS011;16421;50.202;7.852;2022-08-14T16:21:56;0.50;;;0.50;;
29218;SDS011;16421;50.202;7.852;2022-08-14T16:27:04;0.35;;;0.35;;
29218;SDS011;16421;50.202;7.852;2022-08-14T16:32:16;0.82;;;0.63;;
29218;SDS011;16421;50.202;7.852;2022-08-14T16:37:22;0.40;;;0.40;;
29218;SDS011;16421;50.202;7.852;2022-08-14T16:42:26;0.50;;;0.50;;
29218;SDS011;16421;50.202;7.852;2022-08-14T16:47:34;0.50;;;0.40;;
29218;SDS011;16421;50.202;7.852;2022-08-14T16:52:40;0.57;;;0.57;;
29218;SDS011;16421;50.202;7.852;2022-08-14T16:57:46;0.50;;;0.50;;
29218;SDS011;16421;50.202;7.852;2022-08-14T17:02:52;0.65;;;0.50;;
29218;SDS011;16421;50.202;7.852;2022-08-14T17:08:08;0.60;;;0.55;;
29218;SDS011;16421;50.202;7.852;2022-08-14T17:13:19;0.88;;;0.52;;
29218;SDS011;16421;50.202;7.852;2022-08-14T17:18:35;0.75;;;0.57;;
29218;SDS011;16421;50.202;7.852;2022-08-14T17:23:41;0.45;;;0.45;;
29218;SDS011;16421;50.202;7.852;2022-08-14T17:28:45;0.52;;;0.40;;
29218;SDS011;16421;50.202;7.852;2022-08-14T17:34:10;0.47;;;0.47;;
29218;SDS011;16421;50.202;7.852;2022-08-14T17:39:15;0.50;;;0.50;;
29218;SDS011;16421;50.202;7.852;2022-08-14T17:44:20;1.00;;;0.40;;
29218;SDS011;16421;50.202;7.852;2022-08-14T17:49:31;0.70;;;0.60;;
29218;SDS011;16421;50.202;7.852;2022-08-14T17:54:38;0.40;;;0.40;;
29218;SDS011;16421;50.202;7.852;2022-08-14T17:59:45;0.50;;;0.50;;
29218;SDS011;16421;50.202;7.852;2022-08-14T18:04:51;0.70;;;0.65;;
29218;SDS011;16421;50.202;7.852;2022-08-14T18:09:56;0.80;;;0.57;;
29218;SDS011;16421;50.202;7.852;2022-08-14T18:15:02;0.50;;;0.50;;
29218;SDS011;16421;50.202;7.852;2022-08-14T18:20:09;0.70;;;0.65;;
29218;SDS011;16421;50.202;7.852;2022-08-14T18:25:13;1.10;;;0.80;;
29218;SDS011;16421;50.202;7.852;2022-08-14T18:30:18;0.80;;;0.70;;
29218;SDS011;16421;50.202;7.852;2022-08-14T18:40:43;1.08;;;0.95;;
29218;SDS011;16421;50.202;7.852;2022-08-14T18:45:56;0.85;;;0.80;;
29218;SDS011;16421;50.202;7.852;2022-08-14T18:51:10;0.90;;;0.70;;
29218;SDS011;16421;50.202;7.852;2022-08-14T18:56:15;1.23;;;0.90;;
29218;SDS011;16421;50.202;7.852;2022-08-14T19:01:21;1.50;;;1.02;;
29218;SDS011;16421;50.202;7.852;2022-08-14T19:06:45;1.05;;;0.90;;
29218;SDS011;16421;50.202;7.852;2022-08-14T19:11:51;1.08;;;0.90;;
29218;SDS011;16421;50.202;7.852;2022-08-14T19:17:02;1.10;;;1.00;;
29218;SDS011;16421;50.202;7.852;2022-08-14T19:22:08;1.17;;;1.08;;
29218;SDS011;16421;50.202;7.852;2022-08-14T19:27:19;0.82;;;0.82;;
29218;SDS011;16421;50.202;7.852;2022-08-14T19:32:32;0.82;;;0.80;;
29218;SDS011;16421;50.202;7.852;2022-08-14T19:37:45;1.08;;;0.82;;
29218;SDS011;16421;50.202;7.852;2022-08-14T19:42:50;0.90;;;0.90;;
29218;SDS011;16421;50.202;7.852;2022-08-14T19:47:54;0.95;;;0.95;;
29218;SDS011;16421;50.202;7.852;2022-08-14T19:53:03;1.10;;;1.00;;
29218;SDS011;16421;50.202;7.852;2022-08-14T19:58:10;1.10;;;1.00;;
29218;SDS011;16421;50.202;7.852;2022-08-14T20:03:14;0.82;;;0.80;;
29218;SDS011;16421;50.202;7.852;2022-08-14T20:08:21;1.30;;;1.00;;
29218;SDS011;16421;50.202;7.852;2022-08-14T20:13:25;1.50;;;1.27;;
29218;SDS011;16421;50.202;7.852;2022-08-14T20:18:30;1.50;;;1.10;;
29218;SDS011;16421;50.202;7.852;2022-08-14T20:23:49;0.98;;;0.85;;
29218;SDS011;16421;50.202;7.852;2022-08-14T20:29:25;0.60;;;0.60;;
29218;SDS011;16421;50.202;7.852;2022-08-14T20:34:34;1.05;;;0.88;;
29218;SDS011;16421;50.202;7.852;2022-08-14T20:39:42;0.98;;;0.88;;
29218;SDS011;16421;50.202;7.852;2022-08-14T20:44:47;1.48;;;0.90;;
29218;SDS011;16421;50.202;7.852;2022-08-14T20:50:12;0.90;;;0.90;;
29218;SDS011;16421;50.202;7.852;2022-08-14T20:55:27;1.23;;;1.10;;
29218;SDS011;16421;50.202;7.852;2022-08-14T21:00:34;1.20;;;1.10;;
29218;SDS011;16421;50.202;7.852;2022-08-14T21:05:40;1.30;;;1.20;;
29218;SDS011;16421;50.202;7.852;2022-08-14T21:10:46;0.95;;;0.85;;
29218;SDS011;16421;50.202;7.852;2022-08-14T21:15:51;1.00;;;0.87;;
29218;SDS011;16421;50.202;7.852;2022-08-14T21:20:57;0.80;;;0.80;;
29218;SDS011;16421;50.202;7.852;2022-08-14T21:26:05;1.10;;;1.00;;
29218;SDS011;16421;50.202;7.852;2022-08-14T21:31:09;0.98;;;0.93;;
29218;SDS011;16421;50.202;7.852;2022-08-14T21:36:15;1.17;;;1.08;;
29218;SDS011;16421;50.202;7.852;2022-08-14T21:41:20;1.67;;;0.90;;
29218;SDS011;16421;50.202;7.852;2022-08-14T21:46:24;0.60;;;0.60;;
29218;SDS011;16421;50.202;7.852;2022-08-14T21:51:30;0.80;;;0.80;;
29218;SDS011;16421;50.202;7.852;2022-08-14T21:56:35;0.80;;;0.80;;
29218;SDS011;16421;50.202;7.852;2022-08-14T22:06:05;0.70;;;0.70;;
29218;SDS011;16421;50.202;7.852;2022-08-14T22:11:09;1.90;;;1.10;;
29218;SDS011;16421;50.202;7.852;2022-08-14T22:16:13;1.13;;;0.93;;
29218;SDS011;16421;50.202;7.852;2022-08-14T22:21:18;1.00;;;0.90;;
29218;SDS011;16421;50.202;7.852;2022-08-14T22:26:21;0.68;;;0.68;;
29218;SDS011;16421;50.202;7.852;2022-08-14T22:31:25;1.08;;;0.98;;
29218;SDS011;16421;50.202;7.852;2022-08-14T22:36:29;1.10;;;1.00;;
29218;SDS011;16421;50.202;7.852;2022-08-14T22:41:51;0.60;;;0.60;;
29218;SDS011;16421;50.202;7.852;2022-08-14T22:46:56;0.70;;;0.70;;
29218;SDS011;16421;50.202;7.852;2022-08-14T22:52:03;1.25;;;1.10;;
29218;SDS011;16421;50.202;7.852;2022-08-14T22:57:08;0.88;;;0.88;;
29218;SDS011;16421;50.202;7.852;2022-08-14T23:02:13;1.05;;;0.73;;
29218;SDS011;16421;50.202;7.852;2022-08-14T23:07:24;1.58;;;1.05;;
29218;SDS011;16421;50.202;7.852;2022-08-14T23:12:28;1.20;;;0.98;;
29218;SDS011;16421;50.202;7.852;2022-08-14T23:17:32;1.55;;;1.00;;
29218;SDS011;16421;50.202;7.852;2022-08-14T23:22:42;1.67;;;1.00;;
29218;SDS011;16421;50.202;7.852;2022-08-14T23:27:46;1.33;;;1.00;;
29218;SDS011;16421;50.202;7.852;2022-08-14T23:32:51;0.98;;;0.80;;
29218;SDS011;16421;50.202;7.852;2022-08-14T23:37:58;0.80;;;0.75;;
29218;SDS011;16421;50.202;7.852;2022-08-14T23:43:04;0.70;;;0.70;;
29218;SDS011;16421;50.202;7.852;2022-08-14T23:48:09;1.00;;;0.90;;
29218;SDS011;16421;50.202;7.852;2022-08-14T23:53:16;1.02;;;0.80;;
29218;SDS011;16421;50.202;7.852;2022-08-14T23:58:22;1.15;;;1.00;;
